createdAt,value
2017-04-28T00:00:51.391Z,4.58
2017-04-28T00:03:20.361Z,5.08
2017-04-28T00:05:49.302Z,4.85
2017-04-28T00:08:18.307Z,6.10
2017-04-28T00:10:47.268Z,5.60
2017-04-28T00:13:16.469Z,4.77
2017-04-28T00:15:46.205Z,5.42
2017-04-28T00:18:15.950Z,5.93
2017-04-28T00:20:44.926Z,4.58
2017-04-28T00:23:17.494Z,4.63
2017-04-28T00:25:47.158Z,5.70
2017-04-28T00:28:16.126Z,6.97
2017-04-28T00:30:45.073Z,7.65
2017-04-28T00:33:15.079Z,5.77
2017-04-28T00:35:44.054Z,6.57
2017-04-28T00:38:13.040Z,6.43
2017-04-28T00:40:42.285Z,6.82
2017-04-28T00:43:11.335Z,5.83
2017-04-28T00:45:40.288Z,5.97
2017-04-28T00:48:09.621Z,5.63
2017-04-28T00:50:38.628Z,6.22
2017-04-28T00:53:07.620Z,5.47
2017-04-28T00:55:36.629Z,6.77
2017-04-28T00:58:05.614Z,5.73
2017-04-28T01:00:35.689Z,6.00
2017-04-28T01:03:04.656Z,6.28
2017-04-28T01:05:33.605Z,5.40
2017-04-28T01:08:02.574Z,6.17
2017-04-28T01:10:31.519Z,6.25
2017-04-28T01:13:00.853Z,5.83
2017-04-28T01:15:29.841Z,6.52
2017-04-28T01:17:58.836Z,6.33
2017-04-28T01:20:27.888Z,5.88
2017-04-28T01:22:56.837Z,5.52
2017-04-28T01:25:26.098Z,6.90
2017-04-28T01:27:55.057Z,6.83
2017-04-28T01:30:24.013Z,6.15
2017-04-28T01:32:53.404Z,6.72
2017-04-28T01:35:22.353Z,6.68
2017-04-28T01:37:51.327Z,7.07
2017-04-28T01:40:21.036Z,6.80
2017-04-28T01:42:50.020Z,7.60
2017-04-28T01:45:20.089Z,7.70
2017-04-28T01:47:49.056Z,6.53
2017-04-28T01:50:18.030Z,7.52
2017-04-28T01:52:47.025Z,7.75
2017-04-28T01:55:16.002Z,8.25
2017-04-28T01:57:46.006Z,7.42
2017-04-28T02:00:15.698Z,7.88
2017-04-28T02:02:44.651Z,6.62
2017-04-28T02:05:13.892Z,8.23
2017-04-28T02:07:42.981Z,7.82
2017-04-28T02:10:11.936Z,7.67
2017-04-28T02:12:40.901Z,8.43
2017-04-28T02:15:09.854Z,8.30
2017-04-28T02:17:39.240Z,8.03
2017-04-28T02:20:08.192Z,8.85
2017-04-28T02:22:37.146Z,9.00
2017-04-28T02:25:06.467Z,9.78
2017-04-28T02:27:35.422Z,8.75
2017-04-28T02:30:04.372Z,9.15
2017-04-28T02:32:33.339Z,9.17
2017-04-28T02:35:02.325Z,8.03
2017-04-28T02:37:31.592Z,7.50
2017-04-28T02:40:00.539Z,7.28
2017-04-28T02:42:29.483Z,8.13
2017-04-28T02:44:59.197Z,7.08
2017-04-28T02:47:28.913Z,7.80
2017-04-28T02:49:58.168Z,8.23
2017-04-28T02:52:27.117Z,7.47
2017-04-28T02:54:56.094Z,6.23
2017-04-28T02:57:25.083Z,7.40
2017-04-28T02:59:54.049Z,6.53
2017-04-28T03:02:23.340Z,6.62
2017-04-28T03:04:52.302Z,7.70
2017-04-28T03:07:21.252Z,7.67
2017-04-28T03:09:51.235Z,7.68
2017-04-28T03:12:20.246Z,7.55
2017-04-28T03:14:49.213Z,7.58
2017-04-28T03:17:18.198Z,7.33
2017-04-28T03:19:47.154Z,7.42
2017-04-28T03:22:16.407Z,7.43
2017-04-28T03:24:45.357Z,7.92
2017-04-28T03:27:14.356Z,8.53
2017-04-28T03:29:43.352Z,7.08
2017-04-28T03:32:12.305Z,7.95
2017-04-28T03:34:41.744Z,6.82
2017-04-28T03:37:10.698Z,8.60
2017-04-28T03:39:39.649Z,8.43
2017-04-28T03:42:08.924Z,7.47
2017-04-28T03:44:37.870Z,8.32
2017-04-28T03:47:06.875Z,7.95
2017-04-28T03:49:36.169Z,8.45
2017-04-28T03:52:05.141Z,7.43
2017-04-28T03:54:34.866Z,7.20
2017-04-28T03:57:03.981Z,7.73
2017-04-28T03:59:32.933Z,7.52
2017-04-28T04:02:02.919Z,7.63
2017-04-28T04:04:31.878Z,7.25
2017-04-28T04:07:00.849Z,7.27
2017-04-28T04:09:30.175Z,6.95
2017-04-28T04:11:59.195Z,8.25
2017-04-28T04:14:28.187Z,7.15
2017-04-28T04:16:57.146Z,8.97
2017-04-28T04:19:26.112Z,7.50
2017-04-28T04:21:55.575Z,6.23
2017-04-28T04:24:24.535Z,6.20
2017-04-28T04:26:53.498Z,7.83
2017-04-28T04:29:22.841Z,6.57
2017-04-28T04:31:51.833Z,6.57
2017-04-28T04:34:20.809Z,8.35
2017-04-28T04:36:49.795Z,7.20
2017-04-28T04:39:18.763Z,6.48
2017-04-28T04:41:48.146Z,7.02
2017-04-28T04:44:17.099Z,6.63
2017-04-28T04:46:46.023Z,7.18
2017-04-28T04:49:15.379Z,7.88
2017-04-28T04:51:44.333Z,6.57
2017-04-28T04:54:13.298Z,7.78
2017-04-28T04:56:42.282Z,7.93
2017-04-28T04:59:11.236Z,7.73
2017-04-28T05:01:40.568Z,8.88
2017-04-28T05:04:10.261Z,8.53
2017-04-28T05:06:39.219Z,8.27
2017-04-28T05:09:08.484Z,7.93
2017-04-28T05:11:37.469Z,7.30
2017-04-28T05:14:07.155Z,8.13
2017-04-28T05:16:36.110Z,9.13
2017-04-28T05:19:05.041Z,8.75
2017-04-28T05:21:35.037Z,9.33
2017-04-28T05:24:03.902Z,6.90
2017-04-28T05:26:32.905Z,8.70
2017-04-28T05:29:02.204Z,7.55
2017-04-28T05:31:31.170Z,8.65
2017-04-28T05:34:00.124Z,9.12
2017-04-28T05:36:29.837Z,9.07
2017-04-28T05:38:59.534Z,7.80
2017-04-28T05:41:29.536Z,8.05
2017-04-28T05:43:58.505Z,8.50
2017-04-28T05:46:27.463Z,9.15
2017-04-28T05:48:56.445Z,9.47
2017-04-28T05:51:25.411Z,8.60
2017-04-28T05:53:55.507Z,8.72
2017-04-28T05:56:24.469Z,9.37
2017-04-28T05:58:53.430Z,13.53
2017-04-28T06:01:22.790Z,16.42
2017-04-28T06:03:51.706Z,13.40
2017-04-28T06:06:20.714Z,15.25
2017-04-28T06:08:49.696Z,13.52
2017-04-28T06:11:18.670Z,15.47
2017-04-28T06:13:48.790Z,13.62
2017-04-28T06:16:18.511Z,10.58
2017-04-28T06:18:48.603Z,8.22
2017-04-28T06:21:17.563Z,9.15
2017-04-28T06:23:46.521Z,8.53
2017-04-28T06:26:15.760Z,7.45
2017-04-28T06:28:44.734Z,8.15
2017-04-28T06:31:13.738Z,6.70
2017-04-28T06:33:42.949Z,7.30
2017-04-28T06:36:12.701Z,7.20
2017-04-28T06:38:41.579Z,7.22
2017-04-28T06:41:10.949Z,7.00
2017-04-28T06:43:39.894Z,7.38
2017-04-28T06:46:08.848Z,8.75
2017-04-28T06:48:38.938Z,10.93
2017-04-28T06:51:07.895Z,10.60
2017-04-28T06:53:36.845Z,9.38
2017-04-28T06:56:06.640Z,9.30
2017-04-28T06:58:35.618Z,8.88
2017-04-28T07:01:04.913Z,7.02
2017-04-28T07:03:33.834Z,7.88
2017-04-28T07:06:03.538Z,6.92
2017-04-28T07:08:33.265Z,7.67
2017-04-28T07:11:02.211Z,6.43
2017-04-28T07:13:31.450Z,7.97
2017-04-28T07:16:01.145Z,5.82
2017-04-28T07:18:30.784Z,6.53
2017-04-28T07:21:00.233Z,5.10
2017-04-28T07:23:29.210Z,6.25
2017-04-28T07:25:58.217Z,6.62
2017-04-28T07:28:27.251Z,8.93
2017-04-28T07:30:56.215Z,12.47
2017-04-28T07:33:26.299Z,11.87
2017-04-28T07:35:55.271Z,25.67
2017-04-28T07:38:24.256Z,19.92
2017-04-28T07:40:53.258Z,8.63
2017-04-28T07:43:22.212Z,7.63
2017-04-28T07:45:51.563Z,8.02
2017-04-28T07:48:20.524Z,8.60
2017-04-28T07:50:49.478Z,7.32
2017-04-28T07:53:19.207Z,7.85
2017-04-28T07:55:48.204Z,10.03
2017-04-28T07:58:17.541Z,8.98
2017-04-28T08:00:46.499Z,9.47
2017-04-28T08:03:15.458Z,9.17
2017-04-28T08:05:45.172Z,10.50
2017-04-28T08:08:14.913Z,11.02
2017-04-28T08:10:44.180Z,9.97
2017-04-28T08:13:13.893Z,9.53
2017-04-28T08:15:43.625Z,8.57
2017-04-28T08:18:12.595Z,8.97
2017-04-28T08:20:41.566Z,10.08
2017-04-28T08:23:10.461Z,9.37
2017-04-28T08:25:39.494Z,8.98
2017-04-28T08:28:08.736Z,10.47
2017-04-28T08:30:38.172Z,10.08
2017-04-28T08:33:07.160Z,12.92
2017-04-28T08:35:36.144Z,9.48
2017-04-28T08:38:05.852Z,9.10
2017-04-28T08:40:35.893Z,8.97
2017-04-28T08:43:04.873Z,8.67
2017-04-28T08:45:33.886Z,9.08
2017-04-28T08:48:02.875Z,9.53
2017-04-28T08:50:31.827Z,9.58
2017-04-28T08:53:01.914Z,11.35
2017-04-28T08:55:31.634Z,14.57
2017-04-28T08:58:00.601Z,11.55
2017-04-28T09:00:29.591Z,9.92
2017-04-28T09:02:58.577Z,10.72
2017-04-28T09:05:27.898Z,11.62
2017-04-28T09:07:56.869Z,15.83
2017-04-28T09:10:25.831Z,16.17
2017-04-28T09:12:54.887Z,12.90
2017-04-28T09:15:24.630Z,7.72
2017-04-28T09:17:53.986Z,7.95
2017-04-28T09:20:22.951Z,10.20
2017-04-28T09:22:51.957Z,11.02
2017-04-28T09:25:20.923Z,10.30
2017-04-28T09:27:49.879Z,8.95
2017-04-28T09:30:19.229Z,8.37
2017-04-28T09:32:48.199Z,9.92
2017-04-28T09:35:17.228Z,8.85
2017-04-28T09:37:46.201Z,7.15
2017-04-28T09:40:15.197Z,6.78
2017-04-28T09:42:44.524Z,7.77
2017-04-28T09:45:13.563Z,9.60
2017-04-28T09:47:42.541Z,21.90
2017-04-28T09:50:11.893Z,11.73
2017-04-28T09:52:40.845Z,12.77
2017-04-28T09:55:09.798Z,11.77
2017-04-28T09:57:39.526Z,10.00
2017-04-28T10:00:08.488Z,8.90
2017-04-28T10:02:38.585Z,7.98
2017-04-28T10:05:07.567Z,7.52
2017-04-28T10:07:36.522Z,6.47
2017-04-28T10:10:05.846Z,6.45
2017-04-28T10:12:34.798Z,7.25
2017-04-28T10:15:03.840Z,7.93
2017-04-28T10:17:32.803Z,6.35
2017-04-28T10:20:01.768Z,6.43
2017-04-28T10:22:31.018Z,5.28
2017-04-28T10:25:00.047Z,5.35
2017-04-28T10:27:29.733Z,5.22
2017-04-28T10:29:58.712Z,4.37
2017-04-28T10:32:27.691Z,4.25
2017-04-28T10:34:57.016Z,4.03
2017-04-28T10:37:25.972Z,4.60
2017-04-28T10:39:54.943Z,4.47
2017-04-28T10:42:23.924Z,4.52
2017-04-28T10:44:52.876Z,6.55
2017-04-28T10:47:22.113Z,6.38
2017-04-28T10:49:51.079Z,5.08
2017-04-28T10:52:20.767Z,6.32
2017-04-28T10:54:49.759Z,6.65
2017-04-28T10:57:18.729Z,6.05
2017-04-28T10:59:47.968Z,5.03
2017-04-28T11:02:17.680Z,3.87
2017-04-28T11:04:47.421Z,4.75
2017-04-28T11:07:16.483Z,3.87
2017-04-28T11:09:46.171Z,3.40
2017-04-28T11:12:15.443Z,3.40
2017-04-28T11:14:44.430Z,4.20
2017-04-28T11:17:13.417Z,3.73
2017-04-28T11:19:42.386Z,4.88
2017-04-28T11:22:11.336Z,4.47
2017-04-28T11:24:40.606Z,6.38
2017-04-28T11:27:09.581Z,4.90
2017-04-28T11:29:38.623Z,4.85
2017-04-28T11:32:08.346Z,4.15
2017-04-28T11:34:37.340Z,4.65
2017-04-28T11:37:06.686Z,3.80
2017-04-28T11:39:35.637Z,4.00
2017-04-28T11:42:04.598Z,3.75
2017-04-28T11:44:34.600Z,2.92
2017-04-28T11:47:03.569Z,3.42
2017-04-28T11:49:32.539Z,6.30
2017-04-28T11:52:01.526Z,4.97
2017-04-28T11:54:30.488Z,5.12
2017-04-28T11:57:00.703Z,4.52
2017-04-28T11:59:30.455Z,4.33
2017-04-28T12:01:59.410Z,4.45
2017-04-28T12:04:28.409Z,4.02
2017-04-28T12:06:57.374Z,3.98
2017-04-28T12:09:26.632Z,4.95
2017-04-28T12:11:55.614Z,4.78
2017-04-28T12:14:24.561Z,4.30
2017-04-28T12:16:54.304Z,4.35
2017-04-28T12:19:23.253Z,3.82
2017-04-28T12:21:53.342Z,5.23
2017-04-28T12:24:22.301Z,7.58
2017-04-28T12:26:51.262Z,6.20
2017-04-28T12:29:20.973Z,5.92
2017-04-28T12:31:50.666Z,4.95
2017-04-28T12:34:19.931Z,5.62
2017-04-28T12:36:48.893Z,4.55
2017-04-28T12:39:17.854Z,5.68
2017-04-28T12:41:47.578Z,6.25
2017-04-28T12:44:16.546Z,5.93
2017-04-28T12:46:46.629Z,5.43
2017-04-28T12:49:15.594Z,5.07
2017-04-28T12:51:44.452Z,5.35
2017-04-28T12:54:13.818Z,5.77
2017-04-28T12:56:42.786Z,6.03
2017-04-28T12:59:11.737Z,5.33
2017-04-28T13:01:41.819Z,6.18
2017-04-28T13:04:10.794Z,7.35
2017-04-28T13:06:39.750Z,5.12
2017-04-28T13:09:09.095Z,7.03
2017-04-28T13:11:38.062Z,6.67
2017-04-28T13:14:07.035Z,8.08
2017-04-28T13:16:36.025Z,10.10
2017-04-28T13:19:05.372Z,8.22
2017-04-28T13:21:34.661Z,7.70
2017-04-28T13:24:03.626Z,8.52
2017-04-28T13:26:32.611Z,7.65
2017-04-28T13:29:01.596Z,6.35
2017-04-28T13:31:30.560Z,7.33
2017-04-28T13:34:00.579Z,8.78
2017-04-28T13:36:30.287Z,6.98
2017-04-28T13:39:00.282Z,7.05
2017-04-28T13:41:29.237Z,6.60
2017-04-28T13:43:58.207Z,6.87
2017-04-28T13:46:27.549Z,6.85
2017-04-28T13:48:56.510Z,6.27
2017-04-28T13:51:25.940Z,6.18
2017-04-28T13:53:55.244Z,4.83
2017-04-28T13:56:24.200Z,6.82
2017-04-28T13:58:53.172Z,6.25
2017-04-28T14:01:22.143Z,5.87
2017-04-28T14:03:51.868Z,6.57
2017-04-28T14:06:21.217Z,8.43
2017-04-28T14:08:50.181Z,8.70
2017-04-28T14:11:19.134Z,5.80
2017-04-28T14:13:49.202Z,5.67
2017-04-28T14:16:18.169Z,5.87
2017-04-28T14:18:47.162Z,6.22
2017-04-28T14:21:16.160Z,5.35
2017-04-28T14:23:45.158Z,6.00
2017-04-28T14:26:14.478Z,6.18
2017-04-28T14:28:43.459Z,5.85
2017-04-28T14:31:12.426Z,6.75
2017-04-28T14:33:41.754Z,6.23
2017-04-28T14:36:10.755Z,6.05
2017-04-28T14:38:39.728Z,6.25
2017-04-28T14:41:08.823Z,6.42
2017-04-28T14:43:37.775Z,6.22
2017-04-28T14:46:07.094Z,6.22
2017-04-28T14:48:36.039Z,6.25
2017-04-28T14:51:05.757Z,5.95
2017-04-28T14:53:35.500Z,6.35
2017-04-28T14:56:04.450Z,6.27
2017-04-28T14:58:34.459Z,6.50
2017-04-28T15:01:04.182Z,6.95
2017-04-28T15:03:33.122Z,6.22
2017-04-28T15:06:02.356Z,7.97
2017-04-28T15:08:32.082Z,7.60
2017-04-28T15:11:01.059Z,8.80
2017-04-28T15:13:31.153Z,9.15
2017-04-28T15:16:00.134Z,9.50
2017-04-28T15:18:29.096Z,10.27
2017-04-28T15:20:58.122Z,9.02
2017-04-28T15:23:27.096Z,9.55
2017-04-28T15:25:56.397Z,11.03
2017-04-28T15:28:25.363Z,11.62
2017-04-28T15:30:54.349Z,11.62
2017-04-28T15:33:23.369Z,11.98
2017-04-28T15:35:52.366Z,10.88
2017-04-28T15:38:21.621Z,12.15
2017-04-28T15:40:50.620Z,10.22
2017-04-28T15:43:19.582Z,12.32
2017-04-28T15:45:49.335Z,11.17
2017-04-28T15:48:18.327Z,11.32
2017-04-28T15:50:47.643Z,12.17
2017-04-28T15:53:16.518Z,11.98
2017-04-28T15:55:45.541Z,11.77
2017-04-28T15:58:14.587Z,11.23
2017-04-28T16:00:43.535Z,12.42
2017-04-28T16:03:13.268Z,13.28
2017-04-28T16:05:42.254Z,12.58
2017-04-28T16:08:11.212Z,14.57
2017-04-28T16:10:40.209Z,15.08
2017-04-28T16:13:09.194Z,14.70
2017-04-28T16:15:38.483Z,15.65
2017-04-28T16:18:07.457Z,15.33
2017-04-28T16:20:36.437Z,15.80
2017-04-28T16:23:05.438Z,15.58
2017-04-28T16:25:34.383Z,15.15
2017-04-28T16:28:04.396Z,13.72
2017-04-28T16:30:34.131Z,14.03
2017-04-28T16:33:03.115Z,14.48
2017-04-28T16:35:32.446Z,12.92
2017-04-28T16:38:01.416Z,13.60
2017-04-28T16:40:30.383Z,11.50
2017-04-28T16:43:00.458Z,13.37
2017-04-28T16:45:29.417Z,12.80
2017-04-28T16:47:58.405Z,11.80
2017-04-28T16:50:27.427Z,14.50
2017-04-28T16:52:56.405Z,14.58
2017-04-28T16:55:25.681Z,13.63
2017-04-28T16:57:54.667Z,15.78
2017-04-28T17:00:23.649Z,14.72
2017-04-28T17:02:52.659Z,18.27
2017-04-28T17:05:21.673Z,18.48
2017-04-28T17:07:50.979Z,17.62
2017-04-28T17:10:19.957Z,17.38
2017-04-28T17:12:48.935Z,17.73
2017-04-28T17:15:18.298Z,16.95
2017-04-28T17:17:48.010Z,15.60
2017-04-28T17:20:16.989Z,14.50
2017-04-28T17:22:46.634Z,14.83
2017-04-28T17:25:15.649Z,13.50
2017-04-28T17:27:44.917Z,13.53
2017-04-28T17:30:13.906Z,13.48
2017-04-28T17:32:42.891Z,15.00
2017-04-28T17:35:12.243Z,15.03
2017-04-28T17:37:41.205Z,11.80
2017-04-28T17:40:10.172Z,13.52
2017-04-28T17:42:39.502Z,13.57
2017-04-28T17:45:08.477Z,13.08
2017-04-28T17:47:37.456Z,14.05
2017-04-28T17:50:06.466Z,13.87
2017-04-28T17:52:35.439Z,12.15
2017-04-28T17:55:04.763Z,12.60
2017-04-28T17:57:33.741Z,14.00
2017-04-28T18:00:02.764Z,12.17
2017-04-28T18:02:31.767Z,12.50
2017-04-28T18:05:00.742Z,11.18
2017-04-28T18:07:29.975Z,15.70
2017-04-28T18:09:59.687Z,16.50
2017-04-28T18:12:29.409Z,13.22
2017-04-28T18:14:58.394Z,10.68
2017-04-28T18:17:27.404Z,10.50
2017-04-28T18:19:56.757Z,8.55
2017-04-28T18:22:25.742Z,10.47
2017-04-28T18:24:54.737Z,11.28
2017-04-28T18:27:23.751Z,11.18
2017-04-28T18:29:52.749Z,11.60
2017-04-28T18:32:22.121Z,13.95
2017-04-28T18:34:51.117Z,13.18
2017-04-28T18:37:20.115Z,13.22
2017-04-28T18:39:49.122Z,12.35
2017-04-28T18:42:18.161Z,13.47
2017-04-28T18:44:47.186Z,13.67
2017-04-28T18:47:16.216Z,19.92
2017-04-28T18:49:45.664Z,24.98
2017-04-28T18:52:14.682Z,24.98
2017-04-28T18:54:43.602Z,17.33
2017-04-28T18:57:12.944Z,14.77
2017-04-28T18:59:41.973Z,12.23
2017-04-28T19:02:11.003Z,14.38
2017-04-28T19:04:40.268Z,14.60
2017-04-28T19:07:09.383Z,14.02
2017-04-28T19:09:38.418Z,14.93
2017-04-28T19:12:07.741Z,13.75
2017-04-28T19:14:36.727Z,13.37
2017-04-28T19:17:05.732Z,15.53
2017-04-28T19:19:34.780Z,14.83
2017-04-28T19:22:03.820Z,14.03
2017-04-28T19:24:33.308Z,14.82
2017-04-28T19:27:02.341Z,14.80
2017-04-28T19:29:31.346Z,14.53
2017-04-28T19:32:00.353Z,15.78
2017-04-28T19:34:29.348Z,14.92
2017-04-28T19:36:58.784Z,18.38
2017-04-28T19:39:27.803Z,13.85
2017-04-28T19:41:56.819Z,16.05
2017-04-28T19:44:26.231Z,16.18
2017-04-28T19:46:55.265Z,16.30
2017-04-28T19:49:24.284Z,17.78
2017-04-28T19:51:53.591Z,17.57
2017-04-28T19:54:23.036Z,19.87
2017-04-28T19:56:52.038Z,17.90
2017-04-28T19:59:21.094Z,21.20
2017-04-28T20:01:50.112Z,23.27
2017-04-28T20:04:19.503Z,20.02
2017-04-28T20:06:48.513Z,17.90
2017-04-28T20:09:17.497Z,16.67
2017-04-28T20:11:46.981Z,20.27
2017-04-28T20:14:16.041Z,19.58
2017-04-28T20:16:45.029Z,18.82
2017-04-28T20:19:14.310Z,19.38
2017-04-28T20:21:43.405Z,20.25
2017-04-28T20:24:12.457Z,19.93
2017-04-28T20:26:41.487Z,20.10
2017-04-28T20:29:10.490Z,20.72
2017-04-28T20:31:39.849Z,25.17
2017-04-28T20:34:08.844Z,26.15
2017-04-28T20:36:37.838Z,20.60
2017-04-28T20:39:07.100Z,22.13
2017-04-28T20:41:36.077Z,19.95
2017-04-28T20:44:05.069Z,18.40
2017-04-28T20:46:34.077Z,21.95
2017-04-28T20:49:03.044Z,21.53
2017-04-28T20:51:32.373Z,22.43
2017-04-28T20:54:01.369Z,24.33
2017-04-28T20:56:30.320Z,20.98
2017-04-28T20:58:59.307Z,21.87
2017-04-28T21:01:28.265Z,22.95
2017-04-28T21:03:57.526Z,22.42
2017-04-28T21:06:26.470Z,23.12
2017-04-28T21:08:55.468Z,25.88
2017-04-28T21:11:24.469Z,25.72
2017-04-28T21:13:53.434Z,25.17
2017-04-28T21:16:22.699Z,24.35
2017-04-28T21:18:51.655Z,26.83
2017-04-28T21:21:20.694Z,24.58
2017-04-28T21:23:49.590Z,27.53
2017-04-28T21:26:18.574Z,23.00
2017-04-28T21:28:47.832Z,26.35
2017-04-28T21:31:16.811Z,25.28
2017-04-28T21:33:45.802Z,25.57
2017-04-28T21:36:15.123Z,26.25
2017-04-28T21:38:44.080Z,25.72
2017-04-28T21:41:13.035Z,24.23
2017-04-28T21:43:42.379Z,24.90
2017-04-28T21:46:11.363Z,26.83
2017-04-28T21:48:40.322Z,25.48
2017-04-28T21:51:10.138Z,27.35
2017-04-28T21:53:39.860Z,24.58
2017-04-28T21:56:09.160Z,26.55
2017-04-28T21:58:38.118Z,24.82
2017-04-28T22:01:07.051Z,24.77
2017-04-28T22:03:36.318Z,24.75
2017-04-28T22:06:05.277Z,24.27
2017-04-28T22:08:34.226Z,26.93
2017-04-28T22:11:03.206Z,26.78
2017-04-28T22:13:32.194Z,27.13
2017-04-28T22:16:19.874Z,26.38
2017-04-28T22:18:48.828Z,24.72
2017-04-28T22:21:17.774Z,24.88
2017-04-28T22:23:47.020Z,25.47
2017-04-28T22:26:16.027Z,23.65
2017-04-28T22:28:44.988Z,24.80
2017-04-28T22:31:13.967Z,25.90
2017-04-28T22:33:43.670Z,26.40
2017-04-28T22:36:13.857Z,25.98
2017-04-28T22:38:42.866Z,25.75
2017-04-28T22:41:11.816Z,25.55
2017-04-28T22:43:40.792Z,26.53
2017-04-28T22:46:09.755Z,26.37
2017-04-28T22:48:40.037Z,28.10
2017-04-28T22:51:09.010Z,25.62
2017-04-28T22:53:37.989Z,25.43
2017-04-28T22:56:06.961Z,26.07
2017-04-28T22:58:35.937Z,25.32
2017-04-28T23:01:06.024Z,26.65
2017-04-28T23:03:34.987Z,27.33
2017-04-28T23:06:03.981Z,27.65
2017-04-28T23:08:32.956Z,25.90
2017-04-28T23:11:01.917Z,26.43
2017-04-28T23:13:31.377Z,26.08
2017-04-28T23:16:00.332Z,26.52
2017-04-28T23:18:29.298Z,26.00
2017-04-28T23:20:58.294Z,26.85
2017-04-28T23:23:28.969Z,25.48
2017-04-28T23:25:58.279Z,27.20
2017-04-28T23:28:27.258Z,26.13
2017-04-28T23:30:56.206Z,26.40
2017-04-28T23:33:26.010Z,25.22
2017-04-28T23:35:55.713Z,27.17
2017-04-28T23:38:25.809Z,26.03
2017-04-28T23:40:54.768Z,25.37
2017-04-28T23:43:23.723Z,24.07
2017-04-28T23:45:53.473Z,26.25
2017-04-28T23:48:22.440Z,24.27
2017-04-28T23:50:51.878Z,26.12
2017-04-28T23:53:20.840Z,24.57
2017-04-28T23:55:49.799Z,26.60
2017-04-28T23:58:18.478Z,23.88
